Time;durP1;ratioP1;P1;durP2;ratioP2;P2;SDS_P1;SDS_P2;PMS_P1;PMS_P2;Temp;Humidity;BMP_temperature;BMP_pressure;BME280_temperature;BME280_humidity;BME280_pressure;Samples;Min_cycle;Max_cycle;Signal;HPM_P1;HPM_P2
2023/07/11 00:00:57;;;;;;;12.00;8.80;;;;;;;20.39;100.00;94307.28;5049711;28;20056;-60
2023/07/11 00:03:24;;;;;;;10.45;8.75;;;;;;;20.43;100.00;94304.34;5012608;28;20087;-59
2023/07/11 00:05:58;;;;;;;11.15;8.98;;;;;;;20.38;100.00;94302.16;5049195;28;20040;-59
2023/07/11 00:08:25;;;;;;;12.77;9.00;;;;;;;20.39;100.00;94310.06;5050162;28;20053;-62
2023/07/11 00:10:52;;;;;;;12.40;9.30;;;;;;;20.07;100.00;94300.41;5049352;28;20040;-60
2023/07/11 00:13:19;;;;;;;12.20;9.55;;;;;;;19.82;100.00;94305.13;5049962;28;20049;-59
2023/07/11 00:15:58;;;;;;;11.75;8.80;;;;;;;19.88;100.00;94314.38;5049431;28;20513;-59
2023/07/11 00:18:25;;;;;;;12.40;8.98;;;;;;;19.99;100.00;94316.69;5049791;28;20043;-59
2023/07/11 00:20:52;;;;;;;10.85;8.98;;;;;;;20.07;100.00;94303.19;5049175;28;20052;-59
2023/07/11 00:23:19;;;;;;;12.23;9.23;;;;;;;20.12;100.00;94308.13;5051993;28;20049;-62
2023/07/11 00:25:45;;;;;;;10.65;9.43;;;;;;;20.08;100.00;94305.53;5064919;28;20051;-59
2023/07/11 00:28:12;;;;;;;10.98;9.00;;;;;;;20.02;100.00;94306.59;5030747;28;20044;-59
2023/07/11 00:30:41;;;;;;;13.18;9.60;;;;;;;19.78;100.00;94314.84;5058130;28;20041;-61
2023/07/11 00:33:08;;;;;;;12.85;9.10;;;;;;;19.92;100.00;94306.63;5033320;28;21575;-61
2023/07/11 00:35:39;;;;;;;13.23;9.47;;;;;;;19.99;100.00;94305.53;5029902;28;20568;-59
2023/07/11 00:38:06;;;;;;;11.80;9.02;;;;;;;20.04;100.00;94307.72;5036967;28;20468;-61
2023/07/11 00:40:39;;;;;;;12.52;9.88;;;;;;;20.07;100.00;94300.41;5049441;28;20044;-60
2023/07/11 00:43:13;;;;;;;14.02;9.20;;;;;;;20.07;100.00;94300.41;5048451;28;20041;-59
2023/07/11 00:46:04;;;;;;;14.45;10.05;;;;;;;20.04;100.00;94296.56;5049215;28;20045;-59
2023/07/11 00:48:35;;;;;;;17.27;13.17;;;;;;;20.02;100.00;94296.25;5048051;28;20601;-60
2023/07/11 00:51:03;;;;;;;13.60;10.80;;;;;;;20.03;100.00;94288.66;5048644;28;20047;-59
2023/07/11 00:53:31;;;;;;;13.32;9.75;;;;;;;20.03;100.00;94292.22;5027976;28;20090;-59
2023/07/11 00:56:02;;;;;;;12.60;9.40;;;;;;;19.82;100.00;94293.97;5031529;28;20644;-59
2023/07/11 00:58:31;;;;;;;13.93;9.73;;;;;;;19.48;100.00;94295.06;5049081;28;20413;-60
2023/07/11 01:00:59;;;;;;;14.60;9.70;;;;;;;19.29;100.00;94289.47;5048609;28;20421;-62
2023/07/11 01:03:26;;;;;;;12.75;9.27;;;;;;;19.43;100.00;94290.88;5031376;28;20068;-62
2023/07/11 01:05:57;;;;;;;12.45;9.55;;;;;;;19.52;100.00;94295.69;5035123;28;20409;-59
2023/07/11 01:08:24;;;;;;;17.73;9.52;;;;;;;19.56;100.00;94291.50;5048682;28;20672;-61
2023/07/11 01:10:51;;;;;;;11.85;9.85;;;;;;;19.66;100.00;94295.03;5048362;28;20083;-61
2023/07/11 01:13:18;;;;;;;11.30;8.87;;;;;;;19.64;100.00;94282.81;5048821;28;20142;-59
2023/07/11 01:15:45;;;;;;;12.10;8.82;;;;;;;19.63;100.00;94276.47;5048275;28;20075;-59
2023/07/11 01:18:11;;;;;;;12.40;9.45;;;;;;;19.61;100.00;94276.16;5044083;28;20036;-59
2023/07/11 01:20:38;;;;;;;11.55;8.90;;;;;;;19.60;100.00;94276.63;5048562;28;20060;-62
2023/07/11 01:23:05;;;;;;;12.68;9.43;;;;;;;19.60;100.00;94282.19;5047843;28;20357;-60
2023/07/11 01:25:32;;;;;;;14.77;9.30;;;;;;;19.57;100.00;94278.34;5048602;28;20037;-59
2023/07/11 01:27:58;;;;;;;12.45;9.48;;;;;;;19.52;100.00;94276.19;5047942;28;20053;-59
2023/07/11 01:30:25;;;;;;;13.85;9.43;;;;;;;19.44;100.00;94272.94;5048492;28;20049;-60
2023/07/11 01:32:52;;;;;;;12.88;9.25;;;;;;;19.39;100.00;94270.00;5046997;28;20041;-62
2023/07/11 01:35:19;;;;;;;13.02;10.05;;;;;;;19.32;100.00;94268.31;5012362;28;20073;-60
2023/07/11 01:37:46;;;;;;;13.07;10.43;;;;;;;19.27;100.00;94266.91;5033528;28;20059;-58
2023/07/11 01:40:13;;;;;;;14.85;10.35;;;;;;;19.26;100.00;94262.59;5048385;28;20044;-58
2023/07/11 01:42:40;;;;;;;13.70;10.05;;;;;;;19.27;100.00;94260.56;5048044;28;20045;-59
2023/07/11 01:45:09;;;;;;;13.30;9.63;;;;;;;19.31;100.00;94261.97;5047471;28;20405;-59
2023/07/11 01:47:37;;;;;;;12.05;9.63;;;;;;;19.31;100.00;94256.38;5047281;28;20403;-61
2023/07/11 01:50:04;;;;;;;12.17;10.33;;;;;;;19.30;100.00;94263.22;5020112;28;20041;-61
2023/07/11 01:52:31;;;;;;;13.13;10.30;;;;;;;19.25;100.00;94257.47;5045269;28;20044;-59
2023/07/11 01:54:57;;;;;;;13.80;10.35;;;;;;;19.20;100.00;94253.31;5041380;28;20045;-60
2023/07/11 01:57:24;;;;;;;13.57;10.13;;;;;;;19.18;100.00;94249.47;5041845;28;20409;-60
2023/07/11 01:59:51;;;;;;;14.20;10.00;;;;;;;19.13;100.00;94243.25;5047723;28;20490;-59
2023/07/11 02:02:18;;;;;;;13.57;10.13;;;;;;;19.11;100.00;94244.97;5036017;28;20045;-60
2023/07/11 02:04:45;;;;;;;15.07;10.27;;;;;;;19.04;100.00;94251.59;5046636;28;20168;-60
2023/07/11 02:07:11;;;;;;;13.15;9.80;;;;;;;19.00;100.00;94237.09;5047964;28;20049;-61
2023/07/11 02:09:38;;;;;;;13.27;10.38;;;;;;;19.00;100.00;94239.09;5045576;28;20075;-59
2023/07/11 02:12:05;;;;;;;13.25;10.43;;;;;;;18.94;100.00;94238.94;5047594;28;20037;-58
2023/07/11 02:14:36;;;;;;;13.30;10.30;;;;;;;18.87;100.00;94230.88;5016999;28;20421;-59
2023/07/11 02:17:03;;;;;;;13.65;10.02;;;;;;;18.85;100.00;94225.78;5047381;28;20346;-61
2023/07/11 02:19:30;;;;;;;13.13;10.10;;;;;;;18.79;100.00;94219.28;5047952;28;20051;-61
2023/07/11 02:21:57;;;;;;;12.57;9.70;;;;;;;18.77;100.00;94225.28;5045857;28;20156;-60
2023/07/11 02:24:24;;;;;;;14.82;10.10;;;;;;;18.76;100.00;94226.50;5051765;28;20379;-62
2023/07/11 02:26:52;;;;;;;13.80;10.10;;;;;;;18.76;100.00;94220.19;5055368;28;20155;-60
2023/07/11 02:29:19;;;;;;;14.65;10.15;;;;;;;18.74;100.00;94217.88;5047993;28;20037;-60
2023/07/11 02:31:45;;;;;;;12.80;10.00;;;;;;;18.71;100.00;94216.03;5047327;28;20504;-59
2023/07/11 02:34:12;;;;;;;13.55;10.10;;;;;;;18.69;100.00;94220.47;5037135;28;20045;-59
2023/07/11 02:36:39;;;;;;;12.45;9.95;;;;;;;18.63;100.00;94219.53;5028024;28;20049;-59
2023/07/11 02:39:06;;;;;;;13.10;10.27;;;;;;;18.61;100.00;94222.00;5043902;28;20075;-59
2023/07/11 02:41:32;;;;;;;12.88;9.45;;;;;;;18.56;100.00;94215.06;5047776;28;20471;-61
2023/07/11 02:43:59;;;;;;;12.88;9.98;;;;;;;18.54;100.00;94220.31;5047270;28;20084;-59
2023/07/11 02:46:26;;;;;;;13.38;9.90;;;;;;;18.48;100.00;94219.38;5029767;28;20453;-59
2023/07/11 02:48:55;;;;;;;13.75;10.43;;;;;;;18.44;100.00;94213.94;5046914;28;20129;-59
2023/07/11 02:51:23;;;;;;;12.50;9.53;;;;;;;18.44;100.00;94216.72;5047518;28;20045;-59
2023/07/11 02:53:49;;;;;;;12.68;9.75;;;;;;;18.42;100.00;94221.97;5047156;28;20049;-59
2023/07/11 02:56:18;;;;;;;13.75;10.45;;;;;;;18.40;100.00;94215.34;5047491;28;20486;-62
2023/07/11 02:58:46;;;;;;;12.45;9.85;;;;;;;18.38;100.00;94215.03;5047706;28;20451;-59
2023/07/11 03:01:14;;;;;;;12.77;9.98;;;;;;;18.30;100.00;94209.75;5051055;28;20114;-62
2023/07/11 03:03:40;;;;;;;15.20;10.20;;;;;;;18.29;100.00;94205.44;5051291;28;20421;-61
2023/07/11 03:06:07;;;;;;;11.73;9.70;;;;;;;18.16;100.00;94207.53;5050171;28;21602;-60
2023/07/11 03:08:34;;;;;;;15.18;10.73;;;;;;;18.16;100.00;94213.09;5051021;28;20049;-59
2023/07/11 03:11:01;;;;;;;13.68;9.15;;;;;;;18.15;100.00;94211.56;5050335;28;20041;-59
2023/07/11 03:13:29;;;;;;;13.63;10.02;;;;;;;18.07;100.00;94213.84;5051121;28;20393;-59
2023/07/11 03:16:02;;;;;;;12.77;9.73;;;;;;;18.04;100.00;94209.19;5050718;28;20106;-59
2023/07/11 03:18:29;;;;;;;11.82;10.00;;;;;;;18.03;100.00;94212.41;5029374;28;20411;-58
2023/07/11 03:20:58;;;;;;;15.27;10.10;;;;;;;18.03;100.00;94212.41;5041333;28;20052;-59
2023/07/11 03:23:25;;;;;;;13.50;9.77;;;;;;;18.01;100.00;94203.78;5050820;28;20405;-58
2023/07/11 03:25:52;;;;;;;13.15;9.90;;;;;;;17.98;100.00;94199.16;5040569;28;20045;-59
2023/07/11 03:28:20;;;;;;;13.63;10.37;;;;;;;17.99;100.00;94197.91;5047548;28;20056;-58
2023/07/11 03:30:47;;;;;;;27.40;20.75;;;;;;;17.96;100.00;94203.13;5050172;28;20498;-59
2023/07/11 03:33:14;;;;;;;19.60;13.85;;;;;;;17.97;100.00;94192.81;5050620;28;20095;-61
2023/07/11 03:35:46;;;;;;;15.60;11.20;;;;;;;17.97;100.00;94198.38;5050658;28;20037;-59
2023/07/11 03:38:13;;;;;;;15.82;10.23;;;;;;;17.92;100.00;94199.72;5049653;28;21632;-58
2023/07/11 03:40:39;;;;;;;12.93;10.27;;;;;;;17.89;100.00;94191.56;5050649;28;20075;-59
2023/07/11 03:43:06;;;;;;;13.48;9.35;;;;;;;17.89;100.00;94189.56;5028984;28;20049;-61
2023/07/11 03:45:33;;;;;;;11.25;9.13;;;;;;;17.90;100.00;94198.66;5029659;28;20041;-59
2023/07/11 03:47:59;;;;;;;13.48;9.30;;;;;;;17.75;100.00;94190.09;5031624;28;20052;-58
2023/07/11 03:50:26;;;;;;;12.43;9.35;;;;;;;17.73;100.00;94187.75;5032712;28;20033;-58
2023/07/11 03:52:53;;;;;;;14.37;9.43;;;;;;;17.80;100.00;94188.72;5049682;28;20147;-60
2023/07/11 03:55:20;;;;;;;12.45;9.50;;;;;;;17.81;100.00;94177.16;5050084;28;20053;-59
2023/07/11 03:57:46;;;;;;;11.95;9.15;;;;;;;17.88;100.00;94184.44;5050034;28;20069;-60
2023/07/11 04:00:13;;;;;;;12.60;9.85;;;;;;;17.94;100.00;94185.41;5032750;28;20040;-61
2023/07/11 04:02:40;;;;;;;13.00;9.30;;;;;;;18.00;100.00;94180.03;5052403;28;20097;-58
2023/07/11 04:05:07;;;;;;;14.10;9.90;;;;;;;18.02;100.00;94178.31;5063524;28;20036;-58
2023/07/11 04:07:34;;;;;;;14.30;9.20;;;;;;;18.05;100.00;94180.22;5050074;28;20054;-59
2023/07/11 04:10:00;;;;;;;13.07;9.27;;;;;;;18.11;100.00;94170.03;5049224;28;20489;-60
2023/07/11 04:12:27;;;;;;;14.13;8.93;;;;;;;18.15;100.00;94172.69;5028990;28;20053;-60
2023/07/11 04:14:54;;;;;;;10.77;8.48;;;;;;;18.19;100.00;94161.41;5041816;28;20052;-59
2023/07/11 04:17:21;;;;;;;10.57;8.60;;;;;;;18.25;100.00;94168.69;5046330;28;20041;-59
2023/07/11 04:19:48;;;;;;;25.58;18.90;;;;;;;18.25;100.00;94168.69;5038876;28;20052;-62
2023/07/11 04:22:14;;;;;;;22.00;16.17;;;;;;;18.25;100.00;94165.91;5049891;28;20354;-59
2023/07/11 04:24:41;;;;;;;13.75;10.07;;;;;;;18.15;100.00;94167.13;5040140;28;20527;-60
2023/07/11 04:27:08;;;;;;;13.27;9.70;;;;;;;18.15;100.00;94173.44;5036911;28;20042;-60
2023/07/11 04:29:36;;;;;;;12.50;9.83;;;;;;;17.94;100.00;94175.06;5032725;28;20049;-59
2023/07/11 04:32:04;;;;;;;13.95;9.95;;;;;;;18.07;100.00;94169.41;5049169;28;20093;-59
2023/07/11 04:34:31;;;;;;;16.00;10.60;;;;;;;18.14;100.00;94165.56;5052230;28;20041;-59
2023/07/11 04:36:58;;;;;;;15.20;10.77;;;;;;;18.13;100.00;94167.56;5057239;28;20125;-61
2023/07/11 04:39:25;;;;;;;14.85;10.18;;;;;;;18.26;100.00;94155.56;5049483;28;20056;-59
2023/07/11 04:41:51;;;;;;;13.13;10.70;;;;;;;18.34;100.00;94165.91;5048896;28;20052;-59
2023/07/11 04:44:18;;;;;;;13.90;10.48;;;;;;;18.56;100.00;94165.78;5031927;28;20045;-60
2023/07/11 04:46:45;;;;;;;14.63;11.13;;;;;;;18.52;100.00;94167.19;5048530;28;20517;-59
2023/07/11 04:49:12;;;;;;;15.55;11.27;;;;;;;18.63;100.00;94156.38;5049512;28;20097;-59
2023/07/11 04:51:38;;;;;;;15.80;11.82;;;;;;;18.65;100.00;94162.28;5049131;28;20080;-61
2023/07/11 04:54:05;;;;;;;15.90;11.60;;;;;;;18.67;100.00;94159.81;5048874;28;20037;-59
2023/07/11 04:56:32;;;;;;;16.05;12.43;;;;;;;18.66;100.00;94161.03;5049089;28;20063;-62
2023/07/11 04:58:59;;;;;;;15.95;12.18;;;;;;;18.75;100.00;94163.03;5048452;28;20037;-58
2023/07/11 05:01:26;;;;;;;15.70;12.30;;;;;;;18.43;100.00;94164.38;5049276;28;20044;-58
2023/07/11 05:03:53;;;;;;;19.13;12.50;;;;;;;18.66;100.00;94165.81;5048442;28;20041;-59
2023/07/11 05:06:20;;;;;;;17.50;11.83;;;;;;;18.72;100.00;94164.72;5048729;28;20049;-59
2023/07/11 05:08:47;;;;;;;15.85;12.18;;;;;;;18.95;100.00;94165.38;5027233;28;20038;-59
2023/07/11 05:11:19;;;;;;;16.70;11.68;;;;;;;18.91;100.00;94159.19;5041781;28;20049;-62
2023/07/11 05:13:49;;;;;;;16.25;11.88;;;;;;;19.05;100.00;94152.25;5027514;28;20158;-59
2023/07/11 05:16:18;;;;;;;17.60;13.73;;;;;;;19.29;100.00;94152.34;5042406;28;20040;-59
2023/07/11 05:18:47;;;;;;;16.13;12.20;;;;;;;19.32;100.00;94155.00;5035693;28;20471;-59
2023/07/11 05:21:16;;;;;;;13.38;11.18;;;;;;;19.24;100.00;94148.19;5048129;28;20049;-62
2023/07/11 05:23:43;;;;;;;19.02;11.80;;;;;;;19.44;100.00;94146.94;5049323;28;20033;-61
2023/07/11 05:26:11;;;;;;;16.48;11.98;;;;;;;19.60;100.00;94143.78;5038170;28;20436;-62
2023/07/11 05:28:38;;;;;;;15.35;11.90;;;;;;;20.07;100.00;94145.16;5030140;28;20052;-63
2023/07/11 05:31:06;;;;;;;16.90;11.63;;;;;;;22.59;100.00;94138.25;5030760;28;20103;-64
2023/07/11 05:33:34;;;;;;;18.67;10.90;;;;;;;24.64;100.00;94134.81;5041898;28;20529;-64
2023/07/11 05:38:49;;;;;;;15.90;9.93;;;;;;;27.45;82.98;94112.72;5053497;28;20044;-65
2023/07/11 05:41:17;;;;;;;13.40;10.00;;;;;;;27.36;79.59;94122.25;5047832;28;20664;-64
2023/07/11 05:43:43;;;;;;;11.50;9.90;;;;;;;28.53;75.14;94118.28;5047701;28;20045;-64
2023/07/11 05:46:10;;;;;;;13.98;9.57;;;;;;;27.68;73.59;94114.09;5048301;28;20420;-64
2023/07/11 05:48:37;;;;;;;12.23;9.70;;;;;;;27.28;77.48;94119.22;5048119;28;20044;-64
2023/07/11 05:51:07;;;;;;;11.05;8.82;;;;;;;28.38;72.42;94110.97;5048358;28;20044;-65
2023/07/11 05:53:34;;;;;;;11.52;9.05;;;;;;;28.70;70.68;94118.88;5048699;28;20057;-65
2023/07/11 05:56:01;;;;;;;13.57;8.70;;;;;;;29.67;65.78;94113.50;5047991;28;20037;-64
2023/07/11 05:58:30;;;;;;;9.50;8.50;;;;;;;29.97;62.41;94107.66;5048680;28;20048;-65
2023/07/11 06:00:58;;;;;;;12.60;8.98;;;;;;;29.05;65.99;94111.50;5028405;28;20432;-65
2023/07/11 06:03:26;;;;;;;10.02;8.32;;;;;;;29.58;64.56;94117.50;5029971;28;20406;-65
2023/07/11 06:05:54;;;;;;;10.57;8.25;;;;;;;30.03;62.21;94105.50;5045728;28;20045;-65
2023/07/11 06:08:20;;;;;;;12.37;8.20;;;;;;;30.15;61.54;94111.75;5048701;28;20052;-64
2023/07/11 06:10:47;;;;;;;10.32;8.50;;;;;;;32.08;54.28;94100.13;5046557;28;20056;-65
2023/07/11 06:13:14;;;;;;;10.30;8.23;;;;;;;30.95;55.37;94097.69;5048554;28;20037;-65
2023/07/11 06:15:41;;;;;;;10.48;8.43;;;;;;;29.92;57.93;94097.19;5048472;28;20045;-64
2023/07/11 06:18:08;;;;;;;13.18;8.07;;;;;;;29.83;59.63;94092.72;5047381;28;20461;-64
2023/07/11 06:20:35;;;;;;;10.03;7.70;;;;;;;30.55;57.32;94089.19;5048316;28;20044;-64
2023/07/11 06:23:02;;;;;;;9.55;8.10;;;;;;;31.42;53.83;94079.94;5047799;28;20053;-65
2023/07/11 06:25:28;;;;;;;11.20;8.55;;;;;;;32.39;50.55;94087.69;5048332;28;20072;-65
2023/07/11 06:27:55;;;;;;;10.45;7.85;;;;;;;33.16;47.43;94085.38;5047993;28;20045;-64
2023/07/11 06:30:22;;;;;;;8.43;7.45;;;;;;;34.32;44.67;94082.81;5048220;28;20055;-64
2023/07/11 06:32:48;;;;;;;10.50;7.40;;;;;;;33.78;44.74;94088.44;5048770;28;20639;-64
2023/07/11 06:35:15;;;;;;;9.20;7.32;;;;;;;32.76;46.46;94087.75;5051982;28;20090;-65
2023/07/11 06:37:42;;;;;;;9.77;7.20;;;;;;;31.69;49.91;94087.59;5051619;28;20049;-65
2023/07/11 06:40:10;;;;;;;10.45;7.47;;;;;;;32.51;47.11;94082.47;5052340;28;20053;-65
2023/07/11 06:42:37;;;;;;;10.57;7.30;;;;;;;33.62;44.75;94082.72;5052105;28;20064;-65
2023/07/11 06:45:04;;;;;;;8.53;6.83;;;;;;;34.77;42.14;94078.41;5051922;28;20037;-64
2023/07/11 06:47:31;;;;;;;8.32;6.78;;;;;;;34.91;42.61;94071.16;5013888;28;20049;-65
2023/07/11 06:49:58;;;;;;;9.40;7.00;;;;;;;35.84;39.17;94082.22;5031689;28;20045;-65
2023/07/11 06:52:25;;;;;;;9.45;6.63;;;;;;;35.96;38.39;94075.50;5027056;28;20045;-65
2023/07/11 06:54:52;;;;;;;10.48;7.07;;;;;;;33.91;41.33;94076.88;5022761;28;20049;-65
2023/07/11 06:57:19;;;;;;;8.53;7.63;;;;;;;33.24;43.41;94074.00;5026554;28;20343;-65
2023/07/11 06:59:47;;;;;;;10.68;7.32;;;;;;;33.19;44.02;94074.94;5025048;28;20049;-65
2023/07/11 07:02:14;;;;;;;10.35;6.90;;;;;;;33.56;43.27;94076.38;5031835;28;20441;-64
2023/07/11 07:04:41;;;;;;;9.43;6.97;;;;;;;35.38;38.64;94069.69;5030858;28;20129;-65
2023/07/11 07:07:08;;;;;;;9.23;7.05;;;;;;;34.00;41.08;94082.00;5030655;28;20528;-65
2023/07/11 07:09:35;;;;;;;9.03;7.20;;;;;;;33.53;43.00;94077.53;5031941;28;20095;-65
2023/07/11 07:12:02;;;;;;;9.05;7.25;;;;;;;34.04;40.88;94084.47;5031122;28;20045;-65
2023/07/11 07:14:29;;;;;;;9.13;7.72;;;;;;;34.57;39.26;94072.34;5031892;28;20057;-66
2023/07/11 07:16:56;;;;;;;10.70;7.03;;;;;;;34.07;41.19;94077.66;5030618;28;20049;-65
2023/07/11 07:19:23;;;;;;;9.90;7.40;;;;;;;32.33;44.85;94075.72;5018828;28;20038;-65
2023/07/11 07:21:49;;;;;;;10.40;7.47;;;;;;;32.56;46.50;94073.06;5030906;28;20049;-64
2023/07/11 07:24:16;;;;;;;9.10;7.60;;;;;;;33.39;44.60;94073.31;5031308;28;20041;-64
2023/07/11 07:26:43;;;;;;;11.02;7.25;;;;;;;35.23;39.81;94078.31;5031247;28;20037;-64
2023/07/11 07:29:10;;;;;;;9.20;6.82;;;;;;;33.57;43.08;94083.63;5031618;28;20041;-64
2023/07/11 07:31:36;;;;;;;11.80;7.45;;;;;;;34.35;41.22;94073.13;5031545;28;20053;-64
2023/07/11 07:34:03;;;;;;;8.23;6.63;;;;;;;35.89;38.76;94075.53;5030687;28;20072;-65
2023/07/11 07:36:30;;;;;;;9.32;7.05;;;;;;;36.52;36.59;94074.50;5031068;28;20041;-65
2023/07/11 07:38:57;;;;;;;7.88;6.68;;;;;;;34.90;39.16;94071.75;5030624;28;20041;-65
2023/07/11 07:41:25;;;;;;;9.57;7.05;;;;;;;33.48;42.07;94067.06;5031036;28;20096;-65
2023/07/11 07:43:51;;;;;;;9.85;6.88;;;;;;;34.27;40.97;94066.66;5030092;28;20514;-64
2023/07/11 07:46:19;;;;;;;9.00;7.03;;;;;;;33.79;41.43;94070.03;5030890;28;20034;-64
2023/07/11 07:48:46;;;;;;;9.05;6.95;;;;;;;34.08;41.31;94069.88;5048393;28;20041;-64
2023/07/11 07:51:16;;;;;;;12.23;7.40;;;;;;;34.71;40.24;94058.69;5050829;28;20045;-65
2023/07/11 07:53:43;;;;;;;8.73;7.03;;;;;;;35.34;39.12;94049.38;5050457;28;20041;-65
2023/07/11 07:56:30;;;;;;;8.48;6.60;;;;;;;34.51;40.96;94051.84;5049576;28;20041;-65
2023/07/11 07:58:56;;;;;;;7.63;6.67;;;;;;;35.12;39.10;94045.25;5030237;28;20057;-65
2023/07/11 08:01:23;;;;;;;9.07;6.97;;;;;;;33.91;42.20;94056.19;5039740;28;20424;-64
2023/07/11 08:03:50;;;;;;;9.63;7.22;;;;;;;33.85;42.54;94059.22;5050330;28;20053;-64
2023/07/11 08:06:19;;;;;;;10.95;7.28;;;;;;;35.32;40.14;94045.56;5050741;28;20489;-65
2023/07/11 08:08:47;;;;;;;10.52;7.22;;;;;;;34.44;41.00;94049.75;5049951;28;20044;-64
2023/07/11 08:11:15;;;;;;;9.47;7.47;;;;;;;33.90;42.08;94052.56;5050698;28;20037;-64
2023/07/11 08:13:43;;;;;;;9.75;6.88;;;;;;;36.20;39.45;94047.53;5049808;28;20679;-65
2023/07/11 08:16:13;;;;;;;9.48;7.32;;;;;;;35.80;38.38;94043.41;5050533;28;20037;-66
2023/07/11 08:18:57;;;;;;;11.32;7.40;;;;;;;34.38;41.74;94038.56;5050097;28;20041;-66
2023/07/11 08:21:24;;;;;;;10.20;7.07;;;;;;;35.54;39.80;94036.13;5050516;28;20378;-66
2023/07/11 08:23:51;;;;;;;10.63;7.30;;;;;;;35.22;40.13;94039.72;5049742;28;20063;-66
2023/07/11 08:26:17;;;;;;;9.68;7.20;;;;;;;34.52;41.24;94035.50;5050218;28;20041;-66
2023/07/11 08:28:44;;;;;;;10.00;7.40;;;;;;;33.86;43.40;94042.91;5049859;28;20101;-66
2023/07/11 08:31:11;;;;;;;10.18;7.28;;;;;;;35.25;40.51;94024.28;5049949;28;20063;-65
2023/07/11 08:33:38;;;;;;;9.80;7.70;;;;;;;34.60;41.95;94027.69;5050151;28;20049;-64
2023/07/11 08:36:05;;;;;;;9.83;7.57;;;;;;;35.00;41.42;94022.09;5049394;28;20105;-65
2023/07/11 08:38:32;;;;;;;10.23;7.45;;;;;;;34.84;41.76;94012.06;5049963;28;20040;-63
2023/07/11 08:41:23;;;;;;;9.48;7.35;;;;;;;34.77;42.27;94012.84;5049063;28;20051;-64
2023/07/11 08:43:58;;;;;;;11.05;7.90;;;;;;;34.20;43.24;94011.97;5032419;28;20064;-64
2023/07/11 08:46:27;;;;;;;9.95;7.60;;;;;;;35.27;41.62;94010.19;5049790;28;20044;-64
2023/07/11 08:49:00;;;;;;;9.67;7.90;;;;;;;34.31;43.12;94019.38;5048996;28;20041;-64
2023/07/11 08:51:33;;;;;;;9.95;7.70;;;;;;;35.02;42.46;94007.25;5049860;28;20072;-64
2023/07/11 08:54:20;;;;;;;11.00;8.13;;;;;;;34.13;44.18;94004.19;5049224;28;20045;-64
2023/07/11 08:56:50;;;;;;;10.27;7.78;;;;;;;35.32;42.60;93999.94;5043546;28;20453;-64
2023/07/11 08:59:37;;;;;;;9.50;8.00;;;;;;;34.61;43.09;94004.31;5011928;28;20044;-64
2023/07/11 09:02:09;;;;;;;11.33;7.80;;;;;;;34.81;43.80;93996.88;5027535;28;20056;-64
2023/07/11 09:04:45;;;;;;;11.38;7.70;;;;;;;35.24;42.47;93996.34;5049536;28;20061;-64
2023/07/11 09:07:37;;;;;;;9.68;7.57;;;;;;;35.19;42.12;93993.16;5048276;28;20106;-64
2023/07/11 09:10:45;;;;;;;10.98;8.35;;;;;;;35.20;42.53;93986.09;5039997;28;20041;-65
2023/07/11 09:13:43;;;;;;;11.65;7.70;;;;;;;35.36;42.41;93980.31;5029114;28;20648;-65
2023/07/11 09:16:34;;;;;;;8.60;7.50;;;;;;;35.63;41.88;93980.50;5035587;28;21436;-66
2023/07/11 09:19:10;;;;;;;11.88;7.88;;;;;;;34.74;42.66;93980.56;5048661;28;20060;-66
2023/07/11 09:21:43;;;;;;;12.27;7.93;;;;;;;36.73;40.65;93965.50;5049314;28;20064;-65
2023/07/11 09:24:40;;;;;;;11.38;7.85;;;;;;;35.90;39.88;93975.00;5048041;28;20068;-64
2023/07/11 09:27:26;;;;;;;11.68;8.05;;;;;;;35.80;42.09;93971.28;5048230;28;21434;-65
2023/07/11 09:29:54;;;;;;;11.07;8.00;;;;;;;35.72;40.74;93968.50;5048526;28;20045;-65
2023/07/11 09:32:30;;;;;;;9.60;7.88;;;;;;;35.01;43.05;93971.50;5048841;28;20088;-65
2023/07/11 09:34:59;;;;;;;9.98;7.53;;;;;;;37.00;39.00;93956.97;5048494;28;20082;-64
2023/07/11 09:37:34;;;;;;;13.77;7.72;;;;;;;36.77;38.47;93963.72;5027781;28;20401;-64
2023/07/11 09:40:47;;;;;;;10.15;7.90;;;;;;;36.04;39.17;93961.19;5037082;28;20059;-64
2023/07/11 09:43:14;;;;;;;9.63;7.57;;;;;;;37.13;37.93;93959.50;5011047;28;20650;-64
2023/07/11 09:45:44;;;;;;;10.82;7.20;;;;;;;37.99;36.24;93962.63;5031340;28;20340;-65
2023/07/11 09:48:16;;;;;;;10.77;7.38;;;;;;;38.31;35.36;93961.53;5035132;28;21756;-65
2023/07/11 09:50:55;;;;;;;10.93;7.10;;;;;;;38.94;34.37;93950.44;5048473;28;20105;-65
2023/07/11 09:53:46;;;;;;;10.20;7.53;;;;;;;38.27;35.26;93940.41;5030775;28;20041;-64
2023/07/11 09:56:16;;;;;;;9.73;7.50;;;;;;;37.16;35.90;93954.69;5045756;28;20703;-64
2023/07/11 09:58:58;;;;;;;11.10;7.50;;;;;;;38.35;35.01;93958.22;5029652;28;20491;-64
2023/07/11 10:01:30;;;;;;;9.95;7.10;;;;;;;37.09;35.88;93964.09;5040636;28;20037;-65
2023/07/11 10:03:59;;;;;;;8.30;7.40;;;;;;;36.87;36.73;93952.34;5048021;28;20059;-65
2023/07/11 10:06:43;;;;;;;9.25;7.60;;;;;;;36.98;37.02;93948.22;5039943;28;20508;-65
2023/07/11 10:09:21;;;;;;;9.07;7.00;;;;;;;38.52;33.98;93945.91;5047065;28;20576;-64
2023/07/11 10:12:02;;;;;;;11.98;7.38;;;;;;;38.71;33.32;93945.91;5047736;28;20049;-65
2023/07/11 10:14:35;;;;;;;9.98;7.30;;;;;;;38.60;33.13;93937.91;5048362;28;20037;-64
2023/07/11 10:17:13;;;;;;;10.05;7.53;;;;;;;38.42;32.99;93939.38;5047649;28;20051;-65
2023/07/11 10:19:41;;;;;;;11.63;6.85;;;;;;;37.37;35.27;93943.53;5048407;28;20040;-65
2023/07/11 10:22:16;;;;;;;10.93;7.63;;;;;;;36.35;37.24;93935.94;5047877;28;20037;-64
2023/07/11 10:24:43;;;;;;;11.40;7.63;;;;;;;36.16;37.47;93930.03;5047749;28;20084;-64
2023/07/11 10:27:13;;;;;;;10.27;7.40;;;;;;;36.01;36.67;93916.63;5048331;28;20051;-64
2023/07/11 10:29:45;;;;;;;9.00;7.32;;;;;;;36.54;36.70;93926.81;5048340;28;20118;-64
2023/07/11 10:32:18;;;;;;;9.60;7.18;;;;;;;36.93;35.97;93912.81;5047156;28;20746;-64
2023/07/11 10:34:55;;;;;;;9.40;7.60;;;;;;;36.10;37.71;93907.44;5048139;28;20105;-64
2023/07/11 10:37:25;;;;;;;10.57;7.20;;;;;;;35.98;37.08;93909.25;5048220;28;20041;-64
2023/07/11 10:40:00;;;;;;;9.50;7.45;;;;;;;34.19;40.69;93915.72;5048002;28;20057;-63
2023/07/11 10:42:43;;;;;;;10.57;8.07;;;;;;;34.74;38.61;93903.59;5048437;28;20101;-63
2023/07/11 10:45:17;;;;;;;9.43;7.28;;;;;;;34.96;39.46;93906.91;5023209;28;20037;-64
2023/07/11 10:48:00;;;;;;;9.43;7.93;;;;;;;35.41;38.39;93916.53;5047302;28;20508;-63
2023/07/11 10:50:35;;;;;;;10.90;7.80;;;;;;;35.51;38.23;93914.56;5047981;28;20482;-63
2023/07/11 10:53:10;;;;;;;11.27;7.90;;;;;;;35.59;37.52;93908.78;5047461;28;20041;-63
2023/07/11 10:55:49;;;;;;;8.23;6.70;;;;;;;35.86;35.53;93897.56;5048080;28;20056;-63
2023/07/11 10:58:19;;;;;;;8.90;7.00;;;;;;;36.28;36.74;93888.22;5046761;28;20052;-63
2023/07/11 11:01:00;;;;;;;10.90;7.53;;;;;;;35.59;37.01;93880.25;5046977;28;20052;-63
2023/07/11 11:03:43;;;;;;;13.38;7.68;;;;;;;34.77;38.92;93891.03;5047921;28;20056;-64
2023/07/11 11:06:28;;;;;;;12.55;8.10;;;;;;;33.87;40.06;93876.44;5046913;28;20401;-64
2023/07/11 11:09:01;;;;;;;10.55;7.72;;;;;;;33.96;39.47;93870.94;5035311;28;20456;-63
2023/07/11 11:11:46;;;;;;;11.93;7.35;;;;;;;34.54;38.68;93864.69;5047762;28;20047;-63
2023/07/11 11:14:15;;;;;;;11.50;7.70;;;;;;;34.34;38.74;93867.25;5035760;28;20063;-63
2023/07/11 11:17:03;;;;;;;9.45;6.97;;;;;;;34.36;37.50;93860.97;5047146;28;20063;-63
2023/07/11 11:20:14;;;;;;;11.80;6.88;;;;;;;34.08;36.42;93853.44;4997708;28;20048;-63
2023/07/11 11:23:11;;;;;;;13.05;6.78;;;;;;;33.74;36.29;93846.84;4978556;28;20604;-63
2023/07/11 11:26:05;;;;;;;12.07;7.63;;;;;;;34.19;36.35;93845.28;5049752;28;21626;-63
2023/07/11 11:28:44;;;;;;;10.27;6.70;;;;;;;34.17;34.11;93839.41;5050371;28;20176;-63
2023/07/11 11:31:25;;;;;;;9.52;6.63;;;;;;;33.28;35.79;93851.81;5050226;28;20498;-63
2023/07/11 11:34:00;;;;;;;13.00;7.00;;;;;;;33.18;36.01;93831.69;5050528;28;20048;-63
2023/07/11 11:36:35;;;;;;;9.32;6.60;;;;;;;33.20;36.96;93834.72;5051286;28;20047;-63
2023/07/11 11:39:24;;;;;;;11.43;7.47;;;;;;;32.92;37.20;93839.25;5050572;28;20072;-63